This is the latest recevied weather packets stored in our database for station/object OE-3002. If no packets are shown the sender has not sent any weather packets the latest 10 day(s).
| Time | Temp. | Humidity | Pressure | Rain* | Wind** | Luminosity | Snow |
|---|---|---|---|---|---|---|---|
| 1788599462 | 17.22° C | 89% | 1024.2 hPa | - | - | - | - |
| 1788597663 | 16.67° C | 91% | 1024.3 hPa | - | - | - | - |
| 1788595863 | 15.56° C | 99% | 1023.4 hPa | - | - | - | - |
| 1788594062 | 15° C | 99% | 1023.5 hPa | - | - | - | - |
| 1788592262 | 15.56° C | 97% | 1023.4 hPa | - | - | - | - |
| 1788590462 | 16.11° C | 86% | 1023.3 hPa | - | - | - | - |
| 1788588663 | 17.78° C | 80% | 1023 hPa | - | - | - | - |
| 1788559863 | 18.33° C | 90% | 1016.6 hPa | - | - | - | - |
| 1788556264 | 19.44° C | 84% | 1015.3 hPa | - | - | - | - |
| 1788550864 | 22.78° C | 64% | 1014.8 hPa | - | - | - | - |
| 1788549064 | 22.78° C | 63% | 1014.9 hPa | - | - | - | - |
| 1788547264 | 22.78° C | 64% | 1013.7 hPa | - | - | - | - |
| 1788545463 | 25° C | 56% | 1013.4 hPa | - | - | - | - |
| 1788543664 | 26.67° C | 49% | 1013.2 hPa | - | - | - | - |
| 1788541863 | 28.33° C | 41% | 1012.8 hPa | - | - | - | - |
| 1788538264 | 31.67° C | 30% | 1012.4 hPa | - | - | - | - |
| 1788534663 | 31.11° C | 33% | 1013.5 hPa | - | - | - | - |
| 1788531063 | 30.56° C | 33% | 1013.5 hPa | - | - | - | - |
| 1788527463 | 30° C | 36% | 1014.7 hPa | - | - | - | - |
| 1788523862 | 28.89° C | 37% | 1015.9 hPa | - | - | - | - |
| 1788522063 | 27.78° C | 40% | 1017.1 hPa | - | - | - | - |
| 1788518463 | 27.22° C | 41% | 1018.3 hPa | - | - | - | - |
| 1788516663 | 26.67° C | 44% | 1018.4 hPa | - | - | - | - |
| 1788514863 | 25.56° C | 48% | 1019.6 hPa | - | - | - | - |
| 1788513063 | 25° C | 50% | 1019.7 hPa | - | - | - | - |
* Rain since midnight (hover to see other rain measurements)
** Current wind speed in m/s (hover to see current wind gust speed)